sensor_id;sensor_type;location;lat;lon;timestamp;P1;durP1;ratioP1;P2;durP2;ratioP2
73084;SDS011;62974;49.460;10.892;2023-07-29T00:01:51;3.17;;;1.25;;
73084;SDS011;62974;49.460;10.892;2023-07-29T00:04:20;3.28;;;1.00;;
73084;SDS011;62974;49.460;10.892;2023-07-29T00:06:47;2.67;;;1.40;;
73084;SDS011;62974;49.460;10.892;2023-07-29T00:09:15;2.00;;;1.40;;
73084;SDS011;62974;49.460;10.892;2023-07-29T00:11:43;2.53;;;1.30;;
73084;SDS011;62974;49.460;10.892;2023-07-29T00:14:10;1.95;;;1.20;;
73084;SDS011;62974;49.460;10.892;2023-07-29T00:16:39;4.03;;;1.55;;
73084;SDS011;62974;49.460;10.892;2023-07-29T00:19:09;2.10;;;1.30;;
73084;SDS011;62974;49.460;10.892;2023-07-29T00:21:37;2.33;;;1.42;;
73084;SDS011;62974;49.460;10.892;2023-07-29T00:24:04;2.13;;;1.25;;
73084;SDS011;62974;49.460;10.892;2023-07-29T00:26:32;2.55;;;1.42;;
73084;SDS011;62974;49.460;10.892;2023-07-29T00:29:00;2.75;;;1.33;;
73084;SDS011;62974;49.460;10.892;2023-07-29T00:31:28;3.55;;;1.25;;
73084;SDS011;62974;49.460;10.892;2023-07-29T00:33:59;5.43;;;1.52;;
73084;SDS011;62974;49.460;10.892;2023-07-29T00:36:26;3.90;;;1.63;;
73084;SDS011;62974;49.460;10.892;2023-07-29T00:38:54;5.10;;;1.70;;
73084;SDS011;62974;49.460;10.892;2023-07-29T00:41:23;2.20;;;1.38;;
73084;SDS011;62974;49.460;10.892;2023-07-29T00:43:52;2.58;;;1.33;;
73084;SDS011;62974;49.460;10.892;2023-07-29T00:46:22;3.35;;;1.85;;
73084;SDS011;62974;49.460;10.892;2023-07-29T00:48:51;2.40;;;1.27;;
73084;SDS011;62974;49.460;10.892;2023-07-29T00:51:20;2.05;;;1.40;;
73084;SDS011;62974;49.460;10.892;2023-07-29T00:53:48;3.30;;;1.65;;
73084;SDS011;62974;49.460;10.892;2023-07-29T00:56:17;4.55;;;1.85;;
73084;SDS011;62974;49.460;10.892;2023-07-29T00:58:45;2.50;;;1.35;;
73084;SDS011;62974;49.460;10.892;2023-07-29T01:01:13;3.80;;;1.67;;
73084;SDS011;62974;49.460;10.892;2023-07-29T01:03:41;2.83;;;1.38;;
73084;SDS011;62974;49.460;10.892;2023-07-29T01:06:12;3.08;;;1.48;;
73084;SDS011;62974;49.460;10.892;2023-07-29T01:08:48;3.05;;;1.65;;
73084;SDS011;62974;49.460;10.892;2023-07-29T01:11:27;2.38;;;1.35;;
73084;SDS011;62974;49.460;10.892;2023-07-29T01:16:34;3.50;;;1.60;;
73084;SDS011;62974;49.460;10.892;2023-07-29T01:19:10;3.47;;;1.50;;
73084;SDS011;62974;49.460;10.892;2023-07-29T01:21:48;3.35;;;1.52;;
73084;SDS011;62974;49.460;10.892;2023-07-29T01:24:18;4.18;;;1.45;;
73084;SDS011;62974;49.460;10.892;2023-07-29T01:26:45;4.95;;;1.40;;
73084;SDS011;62974;49.460;10.892;2023-07-29T01:29:13;3.13;;;1.67;;
73084;SDS011;62974;49.460;10.892;2023-07-29T01:31:43;2.63;;;1.30;;
73084;SDS011;62974;49.460;10.892;2023-07-29T01:34:16;3.45;;;1.58;;
73084;SDS011;62974;49.460;10.892;2023-07-29T01:36:57;2.33;;;1.60;;
73084;SDS011;62974;49.460;10.892;2023-07-29T01:39:29;2.97;;;1.35;;
73084;SDS011;62974;49.460;10.892;2023-07-29T01:42:03;5.60;;;1.60;;
73084;SDS011;62974;49.460;10.892;2023-07-29T01:46:59;3.05;;;1.55;;
73084;SDS011;62974;49.460;10.892;2023-07-29T01:51:54;3.17;;;1.52;;
73084;SDS011;62974;49.460;10.892;2023-07-29T01:54:24;3.97;;;1.38;;
73084;SDS011;62974;49.460;10.892;2023-07-29T01:56:53;3.00;;;1.58;;
73084;SDS011;62974;49.460;10.892;2023-07-29T01:59:20;4.22;;;2.33;;
73084;SDS011;62974;49.460;10.892;2023-07-29T02:01:48;3.80;;;1.55;;
73084;SDS011;62974;49.460;10.892;2023-07-29T02:04:15;3.35;;;1.52;;
73084;SDS011;62974;49.460;10.892;2023-07-29T02:06:43;3.40;;;1.65;;
73084;SDS011;62974;49.460;10.892;2023-07-29T02:09:11;4.82;;;1.80;;
73084;SDS011;62974;49.460;10.892;2023-07-29T02:11:38;2.60;;;1.50;;
73084;SDS011;62974;49.460;10.892;2023-07-29T02:14:07;2.83;;;1.52;;
73084;SDS011;62974;49.460;10.892;2023-07-29T02:16:35;3.00;;;1.75;;
73084;SDS011;62974;49.460;10.892;2023-07-29T02:19:04;2.70;;;1.50;;
73084;SDS011;62974;49.460;10.892;2023-07-29T02:21:31;2.25;;;1.17;;
73084;SDS011;62974;49.460;10.892;2023-07-29T02:23:59;3.50;;;1.60;;
73084;SDS011;62974;49.460;10.892;2023-07-29T02:26:26;2.38;;;1.40;;
73084;SDS011;62974;49.460;10.892;2023-07-29T02:28:54;4.05;;;1.42;;
73084;SDS011;62974;49.460;10.892;2023-07-29T02:31:24;1.38;;;0.98;;
73084;SDS011;62974;49.460;10.892;2023-07-29T02:33:52;5.18;;;1.52;;
73084;SDS011;62974;49.460;10.892;2023-07-29T02:36:19;2.65;;;1.40;;
73084;SDS011;62974;49.460;10.892;2023-07-29T02:38:47;4.75;;;1.30;;
73084;SDS011;62974;49.460;10.892;2023-07-29T02:41:17;2.88;;;1.02;;
73084;SDS011;62974;49.460;10.892;2023-07-29T02:43:47;1.95;;;1.10;;
73084;SDS011;62974;49.460;10.892;2023-07-29T02:46:16;1.52;;;0.90;;
73084;SDS011;62974;49.460;10.892;2023-07-29T02:48:45;1.70;;;1.08;;
73084;SDS011;62974;49.460;10.892;2023-07-29T02:51:12;3.38;;;1.50;;
73084;SDS011;62974;49.460;10.892;2023-07-29T02:53:40;5.82;;;1.30;;
73084;SDS011;62974;49.460;10.892;2023-07-29T02:56:08;2.30;;;1.20;;
73084;SDS011;62974;49.460;10.892;2023-07-29T02:58:36;4.25;;;1.38;;
73084;SDS011;62974;49.460;10.892;2023-07-29T03:01:04;2.75;;;1.20;;
73084;SDS011;62974;49.460;10.892;2023-07-29T03:03:33;2.40;;;1.15;;
73084;SDS011;62974;49.460;10.892;2023-07-29T03:06:03;2.88;;;1.35;;
73084;SDS011;62974;49.460;10.892;2023-07-29T03:08:31;1.98;;;1.25;;
73084;SDS011;62974;49.460;10.892;2023-07-29T03:11:04;1.77;;;1.15;;
73084;SDS011;62974;49.460;10.892;2023-07-29T03:13:33;3.55;;;1.45;;
73084;SDS011;62974;49.460;10.892;2023-07-29T03:16:04;2.75;;;1.48;;
73084;SDS011;62974;49.460;10.892;2023-07-29T03:18:33;3.78;;;2.00;;
73084;SDS011;62974;49.460;10.892;2023-07-29T03:21:00;3.70;;;1.90;;
73084;SDS011;62974;49.460;10.892;2023-07-29T03:23:33;3.83;;;2.30;;
73084;SDS011;62974;49.460;10.892;2023-07-29T03:26:02;2.83;;;2.00;;
73084;SDS011;62974;49.460;10.892;2023-07-29T03:28:36;3.70;;;1.85;;
73084;SDS011;62974;49.460;10.892;2023-07-29T03:31:05;2.67;;;1.63;;
73084;SDS011;62974;49.460;10.892;2023-07-29T03:33:33;3.15;;;1.42;;
73084;SDS011;62974;49.460;10.892;2023-07-29T03:36:01;3.22;;;1.98;;
73084;SDS011;62974;49.460;10.892;2023-07-29T03:38:29;2.83;;;1.38;;
73084;SDS011;62974;49.460;10.892;2023-07-29T03:40:58;2.97;;;1.27;;
73084;SDS011;62974;49.460;10.892;2023-07-29T03:43:25;3.13;;;1.48;;
73084;SDS011;62974;49.460;10.892;2023-07-29T03:45:53;3.45;;;1.27;;
73084;SDS011;62974;49.460;10.892;2023-07-29T03:48:20;2.42;;;1.52;;
73084;SDS011;62974;49.460;10.892;2023-07-29T03:50:48;4.45;;;1.85;;
73084;SDS011;62974;49.460;10.892;2023-07-29T03:53:15;3.55;;;1.70;;
73084;SDS011;62974;49.460;10.892;2023-07-29T03:55:43;6.80;;;2.13;;
73084;SDS011;62974;49.460;10.892;2023-07-29T03:58:12;2.50;;;1.60;;
73084;SDS011;62974;49.460;10.892;2023-07-29T04:00:40;3.92;;;2.05;;
73084;SDS011;62974;49.460;10.892;2023-07-29T04:03:08;3.20;;;2.13;;
73084;SDS011;62974;49.460;10.892;2023-07-29T04:05:35;5.70;;;2.40;;
73084;SDS011;62974;49.460;10.892;2023-07-29T04:08:03;4.30;;;2.15;;
73084;SDS011;62974;49.460;10.892;2023-07-29T04:10:30;3.40;;;1.90;;
73084;SDS011;62974;49.460;10.892;2023-07-29T04:12:58;4.03;;;2.13;;
73084;SDS011;62974;49.460;10.892;2023-07-29T04:15:27;3.55;;;1.83;;
73084;SDS011;62974;49.460;10.892;2023-07-29T04:17:55;2.97;;;1.42;;
73084;SDS011;62974;49.460;10.892;2023-07-29T04:20:23;2.53;;;1.58;;
73084;SDS011;62974;49.460;10.892;2023-07-29T04:22:51;4.38;;;1.63;;
73084;SDS011;62974;49.460;10.892;2023-07-29T04:25:18;5.60;;;3.13;;
73084;SDS011;62974;49.460;10.892;2023-07-29T04:27:46;2.83;;;1.70;;
73084;SDS011;62974;49.460;10.892;2023-07-29T04:30:13;4.72;;;1.65;;
73084;SDS011;62974;49.460;10.892;2023-07-29T04:32:42;2.95;;;1.77;;
73084;SDS011;62974;49.460;10.892;2023-07-29T04:35:11;4.53;;;1.80;;
73084;SDS011;62974;49.460;10.892;2023-07-29T04:37:41;2.55;;;1.58;;
73084;SDS011;62974;49.460;10.892;2023-07-29T04:40:08;5.10;;;2.15;;
73084;SDS011;62974;49.460;10.892;2023-07-29T04:45:07;3.33;;;1.70;;
73084;SDS011;62974;49.460;10.892;2023-07-29T04:47:38;2.97;;;1.73;;
73084;SDS011;62974;49.460;10.892;2023-07-29T04:50:07;3.47;;;2.10;;
73084;SDS011;62974;49.460;10.892;2023-07-29T04:52:36;3.88;;;2.20;;
73084;SDS011;62974;49.460;10.892;2023-07-29T04:55:03;4.63;;;2.08;;
73084;SDS011;62974;49.460;10.892;2023-07-29T04:59:59;3.45;;;1.92;;
73084;SDS011;62974;49.460;10.892;2023-07-29T05:02:26;4.88;;;1.75;;
73084;SDS011;62974;49.460;10.892;2023-07-29T05:04:54;2.50;;;1.38;;
73084;SDS011;62974;49.460;10.892;2023-07-29T05:07:23;3.63;;;1.90;;
73084;SDS011;62974;49.460;10.892;2023-07-29T05:09:50;3.28;;;1.63;;
73084;SDS011;62974;49.460;10.892;2023-07-29T05:12:18;4.18;;;1.88;;
73084;SDS011;62974;49.460;10.892;2023-07-29T05:14:45;3.17;;;1.75;;
73084;SDS011;62974;49.460;10.892;2023-07-29T05:17:13;3.25;;;1.70;;
73084;SDS011;62974;49.460;10.892;2023-07-29T05:19:40;3.35;;;1.70;;
73084;SDS011;62974;49.460;10.892;2023-07-29T05:22:08;5.07;;;1.88;;
73084;SDS011;62974;49.460;10.892;2023-07-29T05:24:38;5.20;;;1.52;;
73084;SDS011;62974;49.460;10.892;2023-07-29T05:27:05;2.72;;;1.58;;
73084;SDS011;62974;49.460;10.892;2023-07-29T05:29:34;4.32;;;1.90;;
73084;SDS011;62974;49.460;10.892;2023-07-29T05:32:02;5.40;;;2.17;;
73084;SDS011;62974;49.460;10.892;2023-07-29T05:34:30;3.80;;;2.05;;
73084;SDS011;62974;49.460;10.892;2023-07-29T05:36:58;2.95;;;1.95;;
73084;SDS011;62974;49.460;10.892;2023-07-29T05:39:25;4.68;;;2.20;;
73084;SDS011;62974;49.460;10.892;2023-07-29T05:41:54;4.55;;;2.47;;
73084;SDS011;62974;49.460;10.892;2023-07-29T05:44:22;3.85;;;2.10;;
73084;SDS011;62974;49.460;10.892;2023-07-29T05:46:49;4.88;;;1.73;;
73084;SDS011;62974;49.460;10.892;2023-07-29T05:49:17;3.05;;;2.00;;
73084;SDS011;62974;49.460;10.892;2023-07-29T05:51:47;5.15;;;2.10;;
73084;SDS011;62974;49.460;10.892;2023-07-29T05:54:17;3.75;;;1.80;;
73084;SDS011;62974;49.460;10.892;2023-07-29T05:56:45;2.53;;;1.60;;
73084;SDS011;62974;49.460;10.892;2023-07-29T05:59:14;3.45;;;1.65;;
73084;SDS011;62974;49.460;10.892;2023-07-29T06:01:41;3.28;;;1.42;;
73084;SDS011;62974;49.460;10.892;2023-07-29T06:04:09;2.95;;;1.50;;
73084;SDS011;62974;49.460;10.892;2023-07-29T06:06:36;3.40;;;1.80;;
73084;SDS011;62974;49.460;10.892;2023-07-29T06:09:04;3.22;;;1.80;;
73084;SDS011;62974;49.460;10.892;2023-07-29T06:11:32;2.30;;;1.40;;
73084;SDS011;62974;49.460;10.892;2023-07-29T06:14:01;2.47;;;1.33;;
73084;SDS011;62974;49.460;10.892;2023-07-29T06:16:30;2.10;;;1.13;;
73084;SDS011;62974;49.460;10.892;2023-07-29T06:18:57;2.30;;;1.10;;
73084;SDS011;62974;49.460;10.892;2023-07-29T06:21:25;2.25;;;1.17;;
73084;SDS011;62974;49.460;10.892;2023-07-29T06:23:53;2.00;;;1.17;;
73084;SDS011;62974;49.460;10.892;2023-07-29T06:26:20;4.32;;;1.10;;
73084;SDS011;62974;49.460;10.892;2023-07-29T06:28:48;1.60;;;0.90;;
73084;SDS011;62974;49.460;10.892;2023-07-29T06:31:15;2.33;;;1.20;;
73084;SDS011;62974;49.460;10.892;2023-07-29T06:33:44;1.80;;;1.02;;
73084;SDS011;62974;49.460;10.892;2023-07-29T06:36:12;3.67;;;1.02;;
73084;SDS011;62974;49.460;10.892;2023-07-29T06:38:39;9.98;;;1.65;;
73084;SDS011;62974;49.460;10.892;2023-07-29T06:43:40;3.72;;;1.13;;
73084;SDS011;62974;49.460;10.892;2023-07-29T06:46:08;5.40;;;1.67;;
73084;SDS011;62974;49.460;10.892;2023-07-29T06:48:36;2.50;;;1.33;;
73084;SDS011;62974;49.460;10.892;2023-07-29T06:51:07;5.82;;;1.85;;
73084;SDS011;62974;49.460;10.892;2023-07-29T06:53:34;4.50;;;1.25;;
73084;SDS011;62974;49.460;10.892;2023-07-29T06:56:02;5.78;;;1.50;;
73084;SDS011;62974;49.460;10.892;2023-07-29T06:58:31;3.10;;;1.42;;
73084;SDS011;62974;49.460;10.892;2023-07-29T07:00:58;4.90;;;1.60;;
73084;SDS011;62974;49.460;10.892;2023-07-29T07:03:26;3.63;;;1.52;;
73084;SDS011;62974;49.460;10.892;2023-07-29T07:05:56;4.18;;;1.15;;
73084;SDS011;62974;49.460;10.892;2023-07-29T07:08:25;3.80;;;1.30;;
73084;SDS011;62974;49.460;10.892;2023-07-29T07:10:57;4.18;;;1.40;;
73084;SDS011;62974;49.460;10.892;2023-07-29T07:13:25;4.30;;;1.38;;
73084;SDS011;62974;49.460;10.892;2023-07-29T07:15:53;2.20;;;1.10;;
73084;SDS011;62974;49.460;10.892;2023-07-29T07:20:49;2.00;;;0.70;;
73084;SDS011;62974;49.460;10.892;2023-07-29T07:23:17;1.27;;;0.88;;
73084;SDS011;62974;49.460;10.892;2023-07-29T07:25:47;1.90;;;1.10;;
73084;SDS011;62974;49.460;10.892;2023-07-29T07:28:14;2.38;;;0.90;;
73084;SDS011;62974;49.460;10.892;2023-07-29T07:30:42;1.77;;;0.95;;
73084;SDS011;62974;49.460;10.892;2023-07-29T07:33:09;1.00;;;0.70;;
73084;SDS011;62974;49.460;10.892;2023-07-29T07:35:37;2.58;;;1.00;;
73084;SDS011;62974;49.460;10.892;2023-07-29T07:38:05;2.42;;;0.88;;
73084;SDS011;62974;49.460;10.892;2023-07-29T07:40:33;1.80;;;0.77;;
73084;SDS011;62974;49.460;10.892;2023-07-29T07:43:03;1.30;;;0.65;;
73084;SDS011;62974;49.460;10.892;2023-07-29T07:45:31;1.73;;;0.90;;
73084;SDS011;62974;49.460;10.892;2023-07-29T07:47:59;4.72;;;1.02;;
73084;SDS011;62974;49.460;10.892;2023-07-29T07:50:28;3.85;;;1.23;;
73084;SDS011;62974;49.460;10.892;2023-07-29T07:52:56;3.38;;;1.00;;
73084;SDS011;62974;49.460;10.892;2023-07-29T07:55:24;1.80;;;1.00;;
73084;SDS011;62974;49.460;10.892;2023-07-29T07:57:51;2.72;;;1.00;;
73084;SDS011;62974;49.460;10.892;2023-07-29T08:00:20;3.30;;;1.40;;
73084;SDS011;62974;49.460;10.892;2023-07-29T08:02:48;2.95;;;1.40;;
73084;SDS011;62974;49.460;10.892;2023-07-29T08:05:16;2.22;;;0.80;;
73084;SDS011;62974;49.460;10.892;2023-07-29T08:07:44;3.55;;;1.20;;
73084;SDS011;62974;49.460;10.892;2023-07-29T08:10:11;3.95;;;1.15;;
73084;SDS011;62974;49.460;10.892;2023-07-29T08:12:39;3.97;;;1.15;;
73084;SDS011;62974;49.460;10.892;2023-07-29T08:15:07;0.80;;;0.63;;
73084;SDS011;62974;49.460;10.892;2023-07-29T08:17:36;1.38;;;0.85;;
73084;SDS011;62974;49.460;10.892;2023-07-29T08:20:04;3.05;;;0.90;;
73084;SDS011;62974;49.460;10.892;2023-07-29T08:22:32;2.80;;;1.13;;
73084;SDS011;62974;49.460;10.892;2023-07-29T08:25:00;0.85;;;0.57;;
73084;SDS011;62974;49.460;10.892;2023-07-29T08:27:30;2.88;;;1.30;;
73084;SDS011;62974;49.460;10.892;2023-07-29T08:30:00;1.58;;;0.80;;
73084;SDS011;62974;49.460;10.892;2023-07-29T08:32:28;3.08;;;1.27;;
73084;SDS011;62974;49.460;10.892;2023-07-29T08:34:57;1.88;;;1.00;;
73084;SDS011;62974;49.460;10.892;2023-07-29T08:37:25;3.05;;;1.13;;
73084;SDS011;62974;49.460;10.892;2023-07-29T08:39:53;2.47;;;1.10;;
73084;SDS011;62974;49.460;10.892;2023-07-29T08:42:21;3.00;;;1.10;;
73084;SDS011;62974;49.460;10.892;2023-07-29T08:44:52;1.40;;;0.60;;
73084;SDS011;62974;49.460;10.892;2023-07-29T08:47:21;0.82;;;0.52;;
73084;SDS011;62974;49.460;10.892;2023-07-29T08:49:48;1.45;;;0.70;;
73084;SDS011;62974;49.460;10.892;2023-07-29T08:52:20;0.75;;;0.40;;
73084;SDS011;62974;49.460;10.892;2023-07-29T08:54:49;2.72;;;0.80;;
73084;SDS011;62974;49.460;10.892;2023-07-29T08:57:18;1.63;;;0.70;;
73084;SDS011;62974;49.460;10.892;2023-07-29T08:59:47;1.88;;;0.60;;
73084;SDS011;62974;49.460;10.892;2023-07-29T09:02:15;2.20;;;1.00;;
73084;SDS011;62974;49.460;10.892;2023-07-29T09:04:43;1.48;;;0.95;;
73084;SDS011;62974;49.460;10.892;2023-07-29T09:07:13;2.72;;;0.63;;
73084;SDS011;62974;49.460;10.892;2023-07-29T09:09:42;1.50;;;0.68;;
73084;SDS011;62974;49.460;10.892;2023-07-29T09:12:10;3.17;;;0.80;;
73084;SDS011;62974;49.460;10.892;2023-07-29T09:14:38;1.17;;;0.70;;
73084;SDS011;62974;49.460;10.892;2023-07-29T09:17:06;4.95;;;1.10;;
73084;SDS011;62974;49.460;10.892;2023-07-29T09:19:35;1.85;;;0.90;;
73084;SDS011;62974;49.460;10.892;2023-07-29T09:22:03;5.00;;;1.27;;
73084;SDS011;62974;49.460;10.892;2023-07-29T09:24:30;2.65;;;1.10;;
73084;SDS011;62974;49.460;10.892;2023-07-29T09:27:00;2.97;;;0.95;;
73084;SDS011;62974;49.460;10.892;2023-07-29T09:29:27;1.80;;;0.80;;
73084;SDS011;62974;49.460;10.892;2023-07-29T09:32:06;1.55;;;0.90;;
73084;SDS011;62974;49.460;10.892;2023-07-29T09:34:45;2.10;;;1.10;;
73084;SDS011;62974;49.460;10.892;2023-07-29T09:37:15;2.13;;;1.15;;
73084;SDS011;62974;49.460;10.892;2023-07-29T09:39:44;3.13;;;1.23;;
73084;SDS011;62974;49.460;10.892;2023-07-29T09:42:17;1.52;;;0.90;;
73084;SDS011;62974;49.460;10.892;2023-07-29T09:44:45;3.50;;;1.25;;
73084;SDS011;62974;49.460;10.892;2023-07-29T09:47:20;2.50;;;1.42;;
73084;SDS011;62974;49.460;10.892;2023-07-29T09:49:48;3.60;;;1.13;;
73084;SDS011;62974;49.460;10.892;2023-07-29T09:52:16;2.55;;;1.40;;
73084;SDS011;62974;49.460;10.892;2023-07-29T09:54:46;1.88;;;0.95;;
73084;SDS011;62974;49.460;10.892;2023-07-29T09:57:14;2.75;;;1.33;;
73084;SDS011;62974;49.460;10.892;2023-07-29T09:59:44;2.70;;;1.35;;
73084;SDS011;62974;49.460;10.892;2023-07-29T10:02:21;3.80;;;1.67;;
73084;SDS011;62974;49.460;10.892;2023-07-29T10:04:49;3.50;;;1.80;;
73084;SDS011;62974;49.460;10.892;2023-07-29T10:07:17;6.13;;;1.95;;
73084;SDS011;62974;49.460;10.892;2023-07-29T10:09:45;3.35;;;2.10;;
73084;SDS011;62974;49.460;10.892;2023-07-29T10:12:14;3.13;;;1.70;;
73084;SDS011;62974;49.460;10.892;2023-07-29T10:14:45;1.98;;;1.13;;
73084;SDS011;62974;49.460;10.892;2023-07-29T10:17:17;3.35;;;1.85;;
73084;SDS011;62974;49.460;10.892;2023-07-29T10:19:48;5.25;;;2.47;;
73084;SDS011;62974;49.460;10.892;2023-07-29T10:22:16;3.58;;;1.67;;
73084;SDS011;62974;49.460;10.892;2023-07-29T10:24:47;4.72;;;2.30;;
73084;SDS011;62974;49.460;10.892;2023-07-29T10:27:17;5.75;;;1.95;;
73084;SDS011;62974;49.460;10.892;2023-07-29T10:29:47;2.95;;;1.73;;
73084;SDS011;62974;49.460;10.892;2023-07-29T10:32:16;3.67;;;1.77;;
73084;SDS011;62974;49.460;10.892;2023-07-29T10:34:44;2.83;;;1.55;;
73084;SDS011;62974;49.460;10.892;2023-07-29T10:37:14;3.30;;;1.83;;
73084;SDS011;62974;49.460;10.892;2023-07-29T10:39:45;2.83;;;1.65;;
73084;SDS011;62974;49.460;10.892;2023-07-29T10:42:19;4.55;;;2.20;;
73084;SDS011;62974;49.460;10.892;2023-07-29T10:44:51;3.53;;;1.83;;
73084;SDS011;62974;49.460;10.892;2023-07-29T10:47:20;3.28;;;1.83;;
73084;SDS011;62974;49.460;10.892;2023-07-29T10:49:51;3.40;;;1.75;;
73084;SDS011;62974;49.460;10.892;2023-07-29T10:52:30;2.85;;;1.73;;
73084;SDS011;62974;49.460;10.892;2023-07-29T10:55:24;2.75;;;1.75;;
73084;SDS011;62974;49.460;10.892;2023-07-29T10:58:04;3.75;;;1.65;;
73084;SDS011;62974;49.460;10.892;2023-07-29T11:00:35;1.17;;;0.85;;
73084;SDS011;62974;49.460;10.892;2023-07-29T11:03:04;4.10;;;1.33;;
73084;SDS011;62974;49.460;10.892;2023-07-29T11:08:17;2.25;;;1.40;;
73084;SDS011;62974;49.460;10.892;2023-07-29T11:10:57;3.83;;;1.20;;
73084;SDS011;62974;49.460;10.892;2023-07-29T11:13:26;2.10;;;1.15;;
73084;SDS011;62974;49.460;10.892;2023-07-29T11:15:56;4.70;;;1.45;;
73084;SDS011;62974;49.460;10.892;2023-07-29T11:18:28;2.95;;;1.60;;
73084;SDS011;62974;49.460;10.892;2023-07-29T11:20:56;2.90;;;1.60;;
73084;SDS011;62974;49.460;10.892;2023-07-29T11:23:29;3.10;;;1.30;;
73084;SDS011;62974;49.460;10.892;2023-07-29T11:25:57;3.15;;;1.65;;
73084;SDS011;62974;49.460;10.892;2023-07-29T11:28:26;3.55;;;1.65;;
73084;SDS011;62974;49.460;10.892;2023-07-29T11:30:54;2.97;;;1.40;;
73084;SDS011;62974;49.460;10.892;2023-07-29T11:33:25;2.83;;;1.50;;
73084;SDS011;62974;49.460;10.892;2023-07-29T11:35:54;3.47;;;1.30;;
73084;SDS011;62974;49.460;10.892;2023-07-29T11:40:53;2.08;;;0.98;;
73084;SDS011;62974;49.460;10.892;2023-07-29T11:43:22;1.60;;;1.10;;
73084;SDS011;62974;49.460;10.892;2023-07-29T11:45:50;2.28;;;1.30;;
73084;SDS011;62974;49.460;10.892;2023-07-29T11:48:27;3.45;;;1.48;;
73084;SDS011;62974;49.460;10.892;2023-07-29T11:50:55;2.20;;;1.20;;
73084;SDS011;62974;49.460;10.892;2023-07-29T11:55:53;3.00;;;1.27;;
73084;SDS011;62974;49.460;10.892;2023-07-29T12:00:48;3.55;;;1.42;;
73084;SDS011;62974;49.460;10.892;2023-07-29T12:03:17;2.17;;;1.13;;
73084;SDS011;62974;49.460;10.892;2023-07-29T12:08:15;2.42;;;1.30;;
73084;SDS011;62974;49.460;10.892;2023-07-29T12:10:43;4.72;;;1.40;;
73084;SDS011;62974;49.460;10.892;2023-07-29T12:13:11;3.35;;;1.20;;
73084;SDS011;62974;49.460;10.892;2023-07-29T12:18:07;2.30;;;1.05;;
73084;SDS011;62974;49.460;10.892;2023-07-29T12:20:36;2.15;;;1.25;;
73084;SDS011;62974;49.460;10.892;2023-07-29T12:23:08;2.42;;;1.25;;
73084;SDS011;62974;49.460;10.892;2023-07-29T12:25:38;5.65;;;1.20;;
73084;SDS011;62974;49.460;10.892;2023-07-29T12:28:05;2.38;;;1.20;;
73084;SDS011;62974;49.460;10.892;2023-07-29T12:30:34;2.47;;;1.00;;
73084;SDS011;62974;49.460;10.892;2023-07-29T12:33:02;2.08;;;0.55;;
73084;SDS011;62974;49.460;10.892;2023-07-29T12:35:36;2.55;;;1.08;;
73084;SDS011;62974;49.460;10.892;2023-07-29T12:38:04;2.25;;;1.35;;
73084;SDS011;62974;49.460;10.892;2023-07-29T12:40:33;1.35;;;0.98;;
73084;SDS011;62974;49.460;10.892;2023-07-29T12:43:05;2.97;;;1.20;;
73084;SDS011;62974;49.460;10.892;2023-07-29T12:48:03;3.60;;;0.88;;
73084;SDS011;62974;49.460;10.892;2023-07-29T12:50:30;1.92;;;1.10;;
73084;SDS011;62974;49.460;10.892;2023-07-29T12:52:58;1.52;;;0.95;;
73084;SDS011;62974;49.460;10.892;2023-07-29T12:55:26;1.83;;;1.17;;
73084;SDS011;62974;49.460;10.892;2023-07-29T12:57:54;2.40;;;1.17;;
73084;SDS011;62974;49.460;10.892;2023-07-29T13:00:24;1.02;;;0.75;;
73084;SDS011;62974;49.460;10.892;2023-07-29T13:02:52;1.33;;;0.75;;
73084;SDS011;62974;49.460;10.892;2023-07-29T13:05:20;2.20;;;1.00;;
73084;SDS011;62974;49.460;10.892;2023-07-29T13:07:47;1.85;;;1.02;;
73084;SDS011;62974;49.460;10.892;2023-07-29T13:10:15;1.23;;;0.93;;
73084;SDS011;62974;49.460;10.892;2023-07-29T13:12:43;3.80;;;1.33;;
73084;SDS011;62974;49.460;10.892;2023-07-29T13:15:11;1.13;;;0.80;;
73084;SDS011;62974;49.460;10.892;2023-07-29T13:17:39;1.75;;;0.85;;
73084;SDS011;62974;49.460;10.892;2023-07-29T13:20:08;1.08;;;0.57;;
73084;SDS011;62974;49.460;10.892;2023-07-29T13:22:36;5.53;;;0.95;;
73084;SDS011;62974;49.460;10.892;2023-07-29T13:25:03;1.58;;;0.80;;
73084;SDS011;62974;49.460;10.892;2023-07-29T13:27:31;3.22;;;1.70;;
73084;SDS011;62974;49.460;10.892;2023-07-29T13:29:59;1.20;;;0.70;;
73084;SDS011;62974;49.460;10.892;2023-07-29T13:32:27;1.88;;;0.90;;
73084;SDS011;62974;49.460;10.892;2023-07-29T13:34:55;1.17;;;0.80;;
73084;SDS011;62974;49.460;10.892;2023-07-29T13:37:22;5.97;;;1.08;;
73084;SDS011;62974;49.460;10.892;2023-07-29T13:39:50;1.25;;;0.95;;
73084;SDS011;62974;49.460;10.892;2023-07-29T13:42:17;1.45;;;0.88;;
73084;SDS011;62974;49.460;10.892;2023-07-29T13:44:45;0.80;;;0.55;;
73084;SDS011;62974;49.460;10.892;2023-07-29T13:47:12;1.45;;;0.70;;
73084;SDS011;62974;49.460;10.892;2023-07-29T13:49:41;1.35;;;0.73;;
73084;SDS011;62974;49.460;10.892;2023-07-29T13:52:09;1.38;;;0.85;;
73084;SDS011;62974;49.460;10.892;2023-07-29T13:54:36;1.90;;;0.90;;
73084;SDS011;62974;49.460;10.892;2023-07-29T13:57:05;0.90;;;0.50;;
73084;SDS011;62974;49.460;10.892;2023-07-29T13:59:33;1.52;;;0.77;;
73084;SDS011;62974;49.460;10.892;2023-07-29T14:02:01;0.80;;;0.52;;
73084;SDS011;62974;49.460;10.892;2023-07-29T14:04:29;1.02;;;0.60;;
73084;SDS011;62974;49.460;10.892;2023-07-29T14:06:58;1.63;;;0.93;;
73084;SDS011;62974;49.460;10.892;2023-07-29T14:09:25;1.20;;;0.80;;
73084;SDS011;62974;49.460;10.892;2023-07-29T14:11:53;0.90;;;0.60;;
73084;SDS011;62974;49.460;10.892;2023-07-29T14:14:21;1.00;;;0.52;;
73084;SDS011;62974;49.460;10.892;2023-07-29T14:16:49;0.88;;;0.60;;
73084;SDS011;62974;49.460;10.892;2023-07-29T14:19:16;1.10;;;0.70;;
73084;SDS011;62974;49.460;10.892;2023-07-29T14:21:44;0.80;;;0.50;;
73084;SDS011;62974;49.460;10.892;2023-07-29T14:24:12;1.10;;;0.77;;
73084;SDS011;62974;49.460;10.892;2023-07-29T14:26:41;1.33;;;0.80;;
73084;SDS011;62974;49.460;10.892;2023-07-29T14:29:08;1.05;;;0.50;;
73084;SDS011;62974;49.460;10.892;2023-07-29T14:31:36;1.80;;;0.70;;
73084;SDS011;62974;49.460;10.892;2023-07-29T14:34:03;0.70;;;0.60;;
73084;SDS011;62974;49.460;10.892;2023-07-29T14:36:31;2.58;;;0.70;;
73084;SDS011;62974;49.460;10.892;2023-07-29T14:38:58;0.93;;;0.60;;
73084;SDS011;62974;49.460;10.892;2023-07-29T14:41:27;1.35;;;0.70;;
73084;SDS011;62974;49.460;10.892;2023-07-29T14:43:55;1.10;;;0.60;;
73084;SDS011;62974;49.460;10.892;2023-07-29T14:46:23;0.52;;;0.30;;
73084;SDS011;62974;49.460;10.892;2023-07-29T14:48:50;1.40;;;0.70;;
73084;SDS011;62974;49.460;10.892;2023-07-29T14:51:18;0.85;;;0.55;;
73084;SDS011;62974;49.460;10.892;2023-07-29T14:53:45;1.67;;;0.77;;
73084;SDS011;62974;49.460;10.892;2023-07-29T14:56:13;1.10;;;0.63;;
73084;SDS011;62974;49.460;10.892;2023-07-29T14:58:45;1.00;;;0.60;;
73084;SDS011;62974;49.460;10.892;2023-07-29T15:01:12;1.70;;;0.80;;
73084;SDS011;62974;49.460;10.892;2023-07-29T15:03:40;1.15;;;0.70;;
73084;SDS011;62974;49.460;10.892;2023-07-29T15:06:11;1.23;;;0.75;;
73084;SDS011;62974;49.460;10.892;2023-07-29T15:08:39;1.40;;;0.85;;
73084;SDS011;62974;49.460;10.892;2023-07-29T15:11:06;1.63;;;1.00;;
73084;SDS011;62974;49.460;10.892;2023-07-29T15:13:34;1.70;;;0.80;;
73084;SDS011;62974;49.460;10.892;2023-07-29T15:16:03;1.27;;;0.73;;
73084;SDS011;62974;49.460;10.892;2023-07-29T15:18:31;1.02;;;0.43;;